Newmarket, United Kingdom
Current Conditions -  °F | °C
As of 7:58 AM on Wednesday 22 Oct 2014 (Local Time) from EGUN Reporting Station
Clear Clear  
Wind Chill: 37°   Ceiling: Unl
Heat Index: 44°   Visibility: 6mi
Dew Point: 44°   Wind: 17mph
Humidity: 99%   Direction: 280°W
Pressure: 30.19"   Gusts: NA
Location:  52.24°N, 0.4°E
Report Text: EGUN 220658Z AUTO 28015KT 9999 CLR 07/07 A3019 RMK AO2 SLP227 T00680066 $
Loading
Personal Weather Stations






























Interactive Weather Map
Tropical Storm Tracking
New forecast layout! Learn more

10-Day Weather Forecast

Advertisements
Track Severe Weather on mobile